Hovedside
METAR-TAF:

METAR-TAF

Lufthavner :

Teheran, Iran

breddegrad: 35-41N, lengdegrad: 051-21E, høyde over havet: 1204 m

Gjeldene værobservasjon

Denne rapporten ble laget for 21 minutter siden, klokken 17:30 UTC
Vind 4 kt fra Nord-nordøst
Temperatur 12°C
Luftfuktighet 28%
Trykk 1020 hPa
Sikt 10 km eller mer
ingen skyer under 1500 m og ingen bygeskyer

METAR: OIII 121730Z 02004KT CAVOK 12/M06 Q1020 A3012

Tid: 21:21 (17:51 UTC)

Varsel

Denne rapporten ble laget for 6 timer og 51 minutter siden, klokken 11:00 UTC
Varsel gyldig fra 12. klokken 12 UTC til 13. klokken 18 UTC
Vind 10 kt fra Vest-sørvest
Sikt: 7000 m
Blir
fra 13. klokken 03 UTC til 13. klokken 05 UTC
Sikt: 4000 m
dis
Blir
fra 13. klokken 08 UTC til 13. klokken 09 UTC
Sikt: 7000 m

TAF: OIII 121100Z 1212/1318 24005MPS 7000 NSC BECMG 1303/1305 4000 HZ BECMG 1308/1309 7000 NSC

Værobservasjoner og værvarsel for over 4000 flyplasser (METAR- og TAF-rapporter).

Tilgjengelige stasjoner er representert av de røde og gule prikkene på kartet.

Hold musepekeren over prikken for å se navnet på stasjonen.

Klikk så for å se værobservasjoner og -varsler.

For å forandre kartet kan du klikke på den grønne knappen med svart kryss for å zoome inn, på den grønne knappen med strek for å zoome ut, eller på de grønne pilene for å se tilstøtende kart.


METAR-TAF: